Stations météo

réclame
Mon MeteoGroup
Sant Jaume, Espagne (8240): Température de l'air & dewpoint: 18.02.2018 22:00:00 - 24.02.2018 22:00:00 (CET)Sant Jaume, Espagne (8240): Vitesse du vent & gusts: 18.02.2018 22:00:00 - 24.02.2018 22:00:00 (CET)Sant Jaume, Espagne (8240): Direction du vent: 18.02.2018 22:00:00 - 24.02.2018 22:00:00 (CET)Sant Jaume, Espagne (8240): Quantités de précipitations: 18.02.2018 22:00:00 - 24.02.2018 22:00:00 (CET)
Date & Time tt [°C] td [°C] ff [km/h] ff [knt] fx [km/h] fx [knt] dd rr [mm]
24.02.2018 22:00:00 7,0 5,6 3 2 8 4 WNW 0,0
24.02.2018 21:00:00 8,2 5,8 5 3 6 3 SSW 0,0
24.02.2018 20:00:00 9,0 6,2 5 3 8 4 S 0,0
24.02.2018 19:00:00 9,9 6,4 6 3 11 6 SSE -
24.02.2018 18:00:00 11,0 5,8 9 5 16 9 SSE 0,0
24.02.2018 17:00:00 11,7 5,6 12 7 18 10 SE 0,0
24.02.2018 16:00:00 11,7 5,1 11 6 18 10 SE 0,0
24.02.2018 15:00:00 12,0 4,3 8 4 16 8 SE 0,0
24.02.2018 14:00:00 12,0 3,2 7 4 14 7 ESE 0,0
24.02.2018 13:00:00 11,8 2,9 1 1 13 7 SW -
24.02.2018 12:00:00 10,5 2,9 9 5 19 10 NNW 0,0
24.02.2018 11:00:00 8,4 3,0 11 6 24 13 NNW 0,0
24.02.2018 10:00:00 6,5 2,5 16 8 31 17 NNW 0,0
24.02.2018 09:00:00 4,8 1,9 17 9 29 16 NNW 0,0
24.02.2018 08:00:00 3,5 1,5 9 5 21 12 NW 0,0
24.02.2018 07:00:00 3,7 1,7 14 8 21 11 NNW -
24.02.2018 06:00:00 1,6 0,2 6 4 11 6 NW 0,0
24.02.2018 05:00:00 2,3 0,4 8 5 11 6 NNW 0,0
24.02.2018 04:00:00 3,1 1,1 6 4 13 7 NW 0,0
24.02.2018 03:00:00 2,5 0,2 4 2 11 6 NW 0,0
24.02.2018 02:00:00 3,0 0,4 5 3 11 6 NW 0,0
24.02.2018 01:00:00 3,7 0,6 3 1 7 4 NW -
24.02.2018 00:00:00 4,3 1,3 4 2 8 4 NW 0,0
23.02.2018 23:00:00 5,0 2,1 5 3 7 4 NNW 0,0
23.02.2018 22:00:00 5,6 2,9 4 2 7 4 NNW 0,0
23.02.2018 21:00:00 6,7 2,9 6 4 9 5 SW 0,0
23.02.2018 20:00:00 7,2 3,0 8 4 13 7 SW 0,0
23.02.2018 19:00:00 8,1 3,0 9 5 23 13 SSW -
23.02.2018 18:00:00 9,4 2,5 14 8 21 11 S 0,0
23.02.2018 17:00:00 10,3 2,5 16 9 23 13 S 0,0
23.02.2018 16:00:00 10,5 1,3 16 9 25 13 SSE 0,0
23.02.2018 15:00:00 10,9 0,6 16 9 21 11 SE 0,0
23.02.2018 14:00:00 11,6 -1,0 2 1 12 7 ENE 0,0
23.02.2018 13:00:00 11,0 -1,4 2 1 14 8 NNE -
23.02.2018 12:00:00 10,1 -0,7 4 2 16 9 N 0,0
23.02.2018 11:00:00 9,3 0,2 5 3 18 10 NW 0,0
23.02.2018 10:00:00 7,0 0,0 9 5 21 11 NNW 0,0
23.02.2018 09:00:00 5,1 0,4 8 4 15 8 NW 0,0
23.02.2018 08:00:00 3,1 -1,0 8 4 11 6 NNW 0,0
23.02.2018 07:00:00 2,9 -2,0 3 2 10 5 NW -
23.02.2018 06:00:00 3,1 -2,0 3 2 7 4 WNW 0,0
23.02.2018 05:00:00 3,5 -1,7 3 2 10 6 NW 0,0
23.02.2018 04:00:00 3,9 -2,0 6 3 12 7 WNW 0,0
23.02.2018 03:00:00 4,3 -1,4 6 4 12 7 WNW 0,0
23.02.2018 02:00:00 5,0 -0,5 8 4 21 12 NW 0,0
23.02.2018 01:00:00 6,3 -1,0 11 6 22 12 NW -
23.02.2018 00:00:00 6,8 -0,5 9 5 23 12 NW 0,0
22.02.2018 23:00:00 6,4 3,4 5 3 10 6 NW 0,0
22.02.2018 22:00:00 7,7 2,9 5 3 10 6 SE 0,0
22.02.2018 21:00:00 7,1 3,2 7 4 13 7 S 0,0
22.02.2018 20:00:00 7,5 3,4 8 5 14 8 S 0,0
22.02.2018 19:00:00 8,3 2,9 10 6 17 9 S -
22.02.2018 18:00:00 10,0 2,1 13 7 17 9 SSE 0,0
22.02.2018 17:00:00 10,9 1,9 13 7 19 10 S 0,0
22.02.2018 16:00:00 11,5 2,3 14 7 23 12 SSE 0,0
22.02.2018 15:00:00 11,3 1,9 16 9 23 13 S 0,0
22.02.2018 14:00:00 13,1 0,4 8 4 25 14 NW 0,0
22.02.2018 13:00:00 11,0 -0,7 4 2 22 12 NW -
22.02.2018 12:00:00 10,1 0,6 13 7 25 14 NW 0,0
22.02.2018 11:00:00 9,0 1,1 13 7 29 16 NW 0,0
22.02.2018 10:00:00 7,8 0,6 10 5 27 14 WNW 0,0
22.02.2018 09:00:00 6,1 0,4 8 4 21 11 NW 0,0
22.02.2018 08:00:00 4,4 -0,5 10 5 23 13 WNW 0,0
22.02.2018 07:00:00 4,2 -0,5 8 5 15 8 WNW -
22.02.2018 06:00:00 4,9 0,2 7 4 22 12 NW 0,0
22.02.2018 05:00:00 4,8 -0,3 7 4 16 9 WNW 0,0
22.02.2018 04:00:00 5,2 -0,3 9 5 22 12 NW 0,0
22.02.2018 03:00:00 5,8 -0,5 10 6 33 18 NW 0,0
22.02.2018 02:00:00 6,1 -0,3 12 7 29 15 NW 0,0
22.02.2018 01:00:00 6,5 0,0 13 7 33 18 WNW -
22.02.2018 00:00:00 6,9 -0,3 10 6 21 11 WNW 0,0
21.02.2018 23:00:00 7,5 -0,5 13 7 22 12 W 0,0
21.02.2018 22:00:00 7,9 6,1 7 4 14 7 W 0,0
21.02.2018 21:00:00 8,0 5,6 11 6 14 7 SSW 0,0
21.02.2018 20:00:00 7,9 6,1 9 5 13 7 S 0,0
21.02.2018 19:00:00 8,1 6,1 10 6 18 10 S -
21.02.2018 18:00:00 9,0 6,5 15 8 22 12 S 0,4
21.02.2018 17:00:00 11,2 4,6 11 6 23 13 SSE 0,0
21.02.2018 16:00:00 11,5 5,9 18 10 25 14 SSE 0,0
21.02.2018 15:00:00 10,6 6,1 22 12 29 16 SE 0,0
21.02.2018 14:00:00 12,6 3,2 16 9 32 18 NNW 0,0
21.02.2018 13:00:00 12,6 3,6 23 12 34 18 N -
21.02.2018 12:00:00 12,3 4,3 17 9 31 17 NNW 0,0
21.02.2018 11:00:00 11,0 4,3 16 9 30 16 NW 0,0
21.02.2018 10:00:00 10,2 3,8 16 9 32 17 NW 0,0
21.02.2018 09:00:00 9,8 4,3 10 5 30 16 NW 0,0
21.02.2018 08:00:00 10,1 4,5 10 5 34 19 NW 0,0
21.02.2018 07:00:00 10,6 4,5 14 8 34 19 NW -
21.02.2018 06:00:00 10,6 4,5 11 6 34 18 NW 0,0
21.02.2018 05:00:00 11,1 4,8 13 7 36 20 NW 0,0
21.02.2018 04:00:00 10,7 4,3 14 8 37 20 NW 0,0
21.02.2018 03:00:00 10,7 4,3 18 10 43 23 WNW 0,0
21.02.2018 02:00:00 10,4 4,1 13 7 32 17 NW 0,0
21.02.2018 01:00:00 10,8 3,9 12 7 37 20 NW -
21.02.2018 00:00:00 11,3 4,1 19 10 48 26 WNW 0,0
20.02.2018 23:00:00 11,7 4,1 23 12 53 29 NW 0,0
20.02.2018 22:00:00 12,1 4,3 27 14 62 34 WNW 0,0
20.02.2018 21:00:00 12,4 4,3 26 14 59 32 NW 0,0
20.02.2018 20:00:00 12,9 4,6 26 14 51 28 NW 0,0
20.02.2018 19:00:00 13,8 5,0 23 12 55 30 WNW -
20.02.2018 18:00:00 15,3 5,8 23 13 52 28 WNW 0,0
20.02.2018 17:00:00 16,0 6,1 22 12 60 33 NW 0,0
20.02.2018 16:00:00 16,0 6,7 24 13 61 33 WNW 0,0
20.02.2018 15:00:00 16,7 6,8 29 15 58 32 NW 0,0
20.02.2018 14:00:00 16,4 6,8 25 14 49 26 NW 0,0
20.02.2018 13:00:00 16,0 7,0 18 10 54 29 NW -
20.02.2018 12:00:00 15,8 7,0 22 12 47 25 NW 0,0
20.02.2018 11:00:00 14,5 7,7 19 10 46 25 NW 0,0
20.02.2018 10:00:00 14,2 8,0 16 8 38 20 WNW 0,0
20.02.2018 09:00:00 13,0 7,7 9 5 27 15 NW 0,0
20.02.2018 08:00:00 12,3 7,4 11 6 26 14 WNW 0,0
20.02.2018 07:00:00 12,5 7,4 13 7 33 18 NW -
20.02.2018 06:00:00 12,0 7,6 13 7 28 15 NW 0,0
20.02.2018 05:00:00 11,7 7,4 7 4 17 9 NW 0,0
20.02.2018 04:00:00 11,1 8,3 7 4 16 9 WNW 0,0
20.02.2018 03:00:00 11,0 9,9 1 1 9 5 WSW 0,0
20.02.2018 02:00:00 11,7 10,6 2 1 13 7 SSW 0,0
20.02.2018 01:00:00 11,7 10,6 8 4 13 7 SSW -
20.02.2018 00:00:00 11,5 10,4 10 5 16 9 SW 0,0
19.02.2018 23:00:00 11,5 10,0 8 5 15 8 SW 0,0
19.02.2018 22:00:00 11,4 9,9 7 4 18 10 SW 0,0
19.02.2018 21:00:00 11,6 9,8 12 6 17 9 SSW 0,0
19.02.2018 20:00:00 11,9 9,9 11 6 17 9 S 0,0
19.02.2018 19:00:00 12,2 9,8 11 6 19 11 S -
19.02.2018 18:00:00 13,1 8,9 14 7 20 11 SSW 0,0
19.02.2018 17:00:00 13,4 8,4 16 9 21 11 S 0,0
19.02.2018 16:00:00 14,2 8,8 13 7 19 10 SSE 0,0
19.02.2018 15:00:00 14,3 7,8 12 6 19 11 SE 0,0
19.02.2018 14:00:00 14,6 8,1 10 6 17 9 ESE 0,0
19.02.2018 13:00:00 15,0 8,3 5 3 15 8 E -
19.02.2018 12:00:00 15,3 6,5 6 3 12 6 SE 0,0
19.02.2018 11:00:00 14,7 6,7 2 1 8 4 E 0,0
19.02.2018 10:00:00 13,9 7,1 0 0 0 0 N 0,0
19.02.2018 09:00:00 11,0 6,5 0 0 5 3 N 0,0
19.02.2018 08:00:00 7,7 5,3 0 0 5 3 N 0,0
19.02.2018 07:00:00 7,5 5,3 2 1 6 4 S -
19.02.2018 06:00:00 8,1 5,8 0 0 0 0 N 0,0
19.02.2018 05:00:00 9,1 5,9 3 1 11 6 N 0,0
19.02.2018 04:00:00 9,8 6,4 5 3 16 8 NW 0,0
19.02.2018 03:00:00 9,8 6,4 5 3 11 6 WNW 0,0
19.02.2018 02:00:00 10,1 6,7 7 4 12 7 WNW 0,0
19.02.2018 01:00:00 11,1 7,0 6 3 17 9 WNW -
19.02.2018 00:00:00 11,8 7,3 11 6 19 11 W 0,0
18.02.2018 23:00:00 11,2 9,3 9 5 14 8 SW 0,0
18.02.2018 22:00:00 11,0 8,8 8 5 21 11 SSW 0,0

tt = Température de l'air
td = dewpoint
ff = Vitesse du vent
fx = gusts
dd = Direction du vent
rr = Quantités de précipitations

stations d'obs. à proximité